createdAt,value
2019-06-07T00:01:22.984Z,63.36
2019-06-07T00:03:58.600Z,63.82
2019-06-07T00:06:32.448Z,63.83
2019-06-07T00:09:09.643Z,63.83
2019-06-07T00:11:46.167Z,63.52
2019-06-07T00:14:21.208Z,63.25
2019-06-07T00:16:54.034Z,63.16
2019-06-07T00:19:28.290Z,63.08
2019-06-07T00:22:31.224Z,63.18
2019-06-07T00:24:38.708Z,63.30
2019-06-07T00:27:14.999Z,63.17
2019-06-07T00:29:49.565Z,62.94
2019-06-07T00:32:23.347Z,62.65
2019-06-07T00:34:57.064Z,62.47
2019-06-07T00:37:30.506Z,62.36
2019-06-07T00:40:30.901Z,62.29
2019-06-07T00:42:41.095Z,62.23
2019-06-07T00:45:19.051Z,62.28
2019-06-07T00:47:49.561Z,62.19
2019-06-07T00:50:24.693Z,62.17
2019-06-07T00:53:14.853Z,62.04
2019-06-07T00:55:33.843Z,62.22
2019-06-07T00:58:07.725Z,62.48
2019-06-07T01:00:42.226Z,62.66
2019-06-07T01:03:17.318Z,62.65
2019-06-07T01:05:51.518Z,62.60
2019-06-07T01:08:29.967Z,62.56
2019-06-07T01:11:01.583Z,62.63
2019-06-07T01:13:34.958Z,62.80
2019-06-07T01:16:08.998Z,62.92
2019-06-07T01:18:46.556Z,63.11
2019-06-07T01:21:20.660Z,63.15
2019-06-07T01:24:11.463Z,63.25
2019-06-07T01:26:33.848Z,63.41
2019-06-07T01:29:10.041Z,63.42
2019-06-07T01:31:41.693Z,63.47
2019-06-07T01:34:16.094Z,63.47
2019-06-07T01:36:49.568Z,63.46
2019-06-07T01:39:28.687Z,63.41
2019-06-07T01:41:59.104Z,63.45
2019-06-07T01:44:32.522Z,63.60
2019-06-07T01:47:06.698Z,63.71
2019-06-07T01:49:40.111Z,64.01
2019-06-07T01:52:13.841Z,64.18
2019-06-07T01:54:57.867Z,64.17
2019-06-07T01:57:39.817Z,63.95
2019-06-07T01:59:57.274Z,63.71
2019-06-07T02:02:31.921Z,63.71
2019-06-07T02:05:07.130Z,63.78
2019-06-07T02:07:40.146Z,63.92
2019-06-07T02:10:19.658Z,64.11
2019-06-07T02:12:54.156Z,63.97
2019-06-07T02:15:31.228Z,63.87
2019-06-07T02:18:06.838Z,63.67
2019-06-07T02:20:40.575Z,63.62
2019-06-07T02:23:15.319Z,63.56
2019-06-07T02:25:50.593Z,63.67
2019-06-07T02:28:40.167Z,63.85
2019-06-07T02:31:03.389Z,63.89
2019-06-07T02:33:40.326Z,63.86
2019-06-07T02:36:12.570Z,63.78
2019-06-07T02:38:46.144Z,63.65
2019-06-07T02:41:19.695Z,63.60
2019-06-07T02:43:53.687Z,63.64
2019-06-07T02:46:39.970Z,63.81
2019-06-07T02:49:06.656Z,63.79
2019-06-07T02:51:42.023Z,63.88
2019-06-07T02:54:16.761Z,64.07
2019-06-07T02:56:57.940Z,64.34
2019-06-07T02:59:52.696Z,64.62
2019-06-07T03:02:01.404Z,64.92
2019-06-07T03:04:41.553Z,65.20
2019-06-07T03:07:11.194Z,65.37
2019-06-07T03:09:45.126Z,65.35
2019-06-07T03:12:20.054Z,65.46
2019-06-07T03:14:54.479Z,65.74
2019-06-07T03:17:45.836Z,66.02
2019-06-07T03:20:21.260Z,66.14
2019-06-07T03:22:56.926Z,65.97
2019-06-07T03:25:36.765Z,65.74
2019-06-07T03:28:09.751Z,65.70
2019-06-07T03:31:00.683Z,65.53
2019-06-07T03:33:19.092Z,65.45
2019-06-07T03:35:52.458Z,65.43
2019-06-07T03:38:27.592Z,65.25
2019-06-07T03:41:01.154Z,64.90
2019-06-07T03:43:37.801Z,64.55
2019-06-07T03:46:11.087Z,64.25
2019-06-07T03:48:50.142Z,64.08
2019-06-07T03:51:26.793Z,64.00
2019-06-07T03:53:59.027Z,63.98
2019-06-07T03:56:36.028Z,63.82
2019-06-07T03:59:08.042Z,63.52
2019-06-07T04:01:41.437Z,63.29
2019-06-07T04:04:14.851Z,62.99
2019-06-07T04:06:48.869Z,62.90
2019-06-07T04:09:22.717Z,62.91
2019-06-07T04:11:56.418Z,62.87
2019-06-07T04:14:31.314Z,62.55
2019-06-07T04:17:06.225Z,62.55
2019-06-07T04:19:43.421Z,62.38
2019-06-07T04:22:15.892Z,62.12
2019-06-07T04:24:49.658Z,62.06
2019-06-07T04:27:26.234Z,62.15
2019-06-07T04:30:07.324Z,62.67
2019-06-07T04:32:37.187Z,62.92
2019-06-07T04:35:11.842Z,63.29
2019-06-07T04:37:45.350Z,63.66
2019-06-07T04:40:19.146Z,64.00
2019-06-07T04:42:53.124Z,64.20
2019-06-07T04:45:36.237Z,64.14
2019-06-07T04:48:07.612Z,63.96
2019-06-07T04:50:44.057Z,63.55
2019-06-07T04:53:18.245Z,62.85
2019-06-07T04:55:55.409Z,62.07
2019-06-07T04:58:30.407Z,61.54
2019-06-07T05:01:04.797Z,61.04
2019-06-07T05:03:41.668Z,60.54
2019-06-07T05:06:14.160Z,59.88
2019-06-07T05:08:50.753Z,59.43
2019-06-07T05:11:24.332Z,59.02
2019-06-07T05:13:58.544Z,57.82
2019-06-07T05:16:40.262Z,56.88
2019-06-07T05:19:10.805Z,56.74
2019-06-07T05:22:02.657Z,56.51
2019-06-07T05:24:20.316Z,56.40
2019-06-07T05:26:53.888Z,56.43
2019-06-07T05:29:28.376Z,56.11
2019-06-07T05:32:05.035Z,56.13
2019-06-07T05:34:42.452Z,56.14
2019-06-07T05:37:17.738Z,56.25
2019-06-07T05:39:53.170Z,56.59
2019-06-07T05:42:26.976Z,56.86
2019-06-07T05:45:00.772Z,57.23
2019-06-07T05:50:48.663Z,57.94
2019-06-07T05:56:00.846Z,58.58
2019-06-07T05:58:05.581Z,59.02
2019-06-07T06:03:48.006Z,59.23
2019-06-07T06:06:21.547Z,59.42
2019-06-07T06:09:12.865Z,59.36
2019-06-07T06:11:45.816Z,59.23
2019-06-07T06:14:08.546Z,58.98
2019-06-07T06:16:47.980Z,58.75
2019-06-07T06:19:21.368Z,58.21
2019-06-07T06:21:58.408Z,57.70
2019-06-07T06:24:32.587Z,57.58
2019-06-07T06:27:28.476Z,57.41
2019-06-07T06:29:43.911Z,56.96
2019-06-07T06:32:41.371Z,56.73
2019-06-07T06:34:55.924Z,56.40
2019-06-07T06:37:26.749Z,56.21
2019-06-07T06:40:00.508Z,55.83
2019-06-07T06:42:33.832Z,55.64
2019-06-07T06:45:08.814Z,55.58
2019-06-07T06:47:43.321Z,55.40
2019-06-07T06:50:19.329Z,55.17
2019-06-07T06:52:54.629Z,55.09
2019-06-07T06:55:27.855Z,54.64
2019-06-07T06:58:00.697Z,54.62
2019-06-07T07:01:25.215Z,54.46
2019-06-07T07:04:01.929Z,54.57
2019-06-07T07:06:25.873Z,54.35
2019-06-07T07:08:54.201Z,54.69
2019-06-07T07:11:27.954Z,54.73
2019-06-07T07:14:01.524Z,54.72
2019-06-07T07:16:36.645Z,54.92
2019-06-07T07:19:08.989Z,54.83
2019-06-07T07:21:45.084Z,54.78
2019-06-07T07:24:22.093Z,54.88
2019-06-07T07:26:57.897Z,54.99
2019-06-07T07:29:28.473Z,55.06
2019-06-07T07:32:02.111Z,55.37
2019-06-07T07:34:37.164Z,55.23
2019-06-07T07:37:10.147Z,54.85
2019-06-07T07:39:45.293Z,54.34
2019-06-07T07:42:21.781Z,54.24
2019-06-07T07:44:56.663Z,53.94
2019-06-07T07:47:29.966Z,53.54
2019-06-07T07:50:04.190Z,53.13
2019-06-07T07:52:37.300Z,52.72
2019-06-07T07:55:10.974Z,52.21
2019-06-07T07:57:46.605Z,52.45
2019-06-07T08:00:50.372Z,52.58
2019-06-07T08:02:58.125Z,52.25
2019-06-07T08:05:41.967Z,52.17
2019-06-07T08:08:07.525Z,52.21
2019-06-07T08:10:40.313Z,51.76
2019-06-07T08:13:24.558Z,52.43
2019-06-07T08:15:52.431Z,53.00
2019-06-07T08:18:22.463Z,53.64
2019-06-07T08:21:20.308Z,54.28
2019-06-07T08:23:32.487Z,53.93
2019-06-07T08:26:06.546Z,54.65
2019-06-07T08:28:40.531Z,54.94
2019-06-07T08:31:19.891Z,54.78
2019-06-07T08:34:00.094Z,54.46
2019-06-07T08:36:42.113Z,54.50
2019-06-07T08:39:08.599Z,54.84
2019-06-07T08:41:54.146Z,53.52
2019-06-07T08:44:23.943Z,53.53
2019-06-07T08:47:11.615Z,53.88
2019-06-07T08:49:28.093Z,54.51
2019-06-07T08:52:07.911Z,54.35
2019-06-07T08:54:36.501Z,55.26
2019-06-07T08:57:20.517Z,55.22
2019-06-07T08:59:44.792Z,55.06
2019-06-07T09:02:23.877Z,55.23
2019-06-07T09:04:54.663Z,55.60
2019-06-07T09:07:26.895Z,55.93
2019-06-07T09:10:09.583Z,55.75
2019-06-07T09:12:37.259Z,54.52
2019-06-07T09:15:21.421Z,53.77
2019-06-07T09:18:30.584Z,53.62
2019-06-07T09:20:36.364Z,52.20
2019-06-07T09:23:06.210Z,51.89
2019-06-07T09:25:52.437Z,51.79
2019-06-07T09:28:19.102Z,50.81
2019-06-07T09:30:46.734Z,50.89
2019-06-07T09:33:20.971Z,49.14
2019-06-07T09:35:56.170Z,47.87
2019-06-07T09:38:31.602Z,46.71
2019-06-07T09:41:07.514Z,47.91
2019-06-07T09:44:19.295Z,45.98
2019-06-07T09:46:17.185Z,46.69
2019-06-07T09:51:27.628Z,51.91
2019-06-07T09:54:05.178Z,53.39
2019-06-07T09:56:35.737Z,54.08
2019-06-07T09:59:12.649Z,54.70
2019-06-07T10:01:44.318Z,55.36
2019-06-07T10:04:30.755Z,55.24
2019-06-07T10:06:55.981Z,56.49
2019-06-07T10:12:08.602Z,59.14
2019-06-07T10:14:45.106Z,58.50
2019-06-07T10:17:16.509Z,55.68
2019-06-07T10:19:50.590Z,56.42
2019-06-07T10:22:26.369Z,55.27
2019-06-07T10:25:00.129Z,55.92
2019-06-07T10:27:34.625Z,54.11
2019-06-07T10:30:08.586Z,53.34
2019-06-07T10:32:44.139Z,52.87
2019-06-07T10:35:17.419Z,52.26
2019-06-07T10:37:52.227Z,52.06
2019-06-07T10:40:27.026Z,50.94
2019-06-07T10:43:01.239Z,50.28
2019-06-07T10:45:34.445Z,50.26
2019-06-07T10:48:07.719Z,49.96
2019-06-07T10:50:42.582Z,49.93
2019-06-07T10:53:15.876Z,49.56
2019-06-07T10:55:49.124Z,49.23
2019-06-07T10:58:23.069Z,48.53
2019-06-07T11:00:58.210Z,47.36
2019-06-07T11:03:33.482Z,46.74
2019-06-07T11:06:10.108Z,45.95
2019-06-07T11:08:43.449Z,45.80
2019-06-07T11:11:16.370Z,45.55
2019-06-07T11:13:52.446Z,44.24
2019-06-07T11:16:23.758Z,43.18
2019-06-07T11:18:56.705Z,41.43
2019-06-07T11:21:29.545Z,40.12
2019-06-07T11:24:06.121Z,40.56
2019-06-07T11:26:40.341Z,38.95
2019-06-07T11:29:15.081Z,37.55
2019-06-07T11:31:50.030Z,36.04
2019-06-07T11:34:24.062Z,35.52
2019-06-07T11:36:57.426Z,34.81
2019-06-07T11:39:30.663Z,33.25
2019-06-07T11:42:04.028Z,33.71
2019-06-07T11:44:37.448Z,33.51
2019-06-07T11:47:12.364Z,32.97
2019-06-07T11:49:47.795Z,32.72
2019-06-07T11:52:23.184Z,32.22
2019-06-07T11:54:56.431Z,32.30
2019-06-07T11:57:29.742Z,32.27
2019-06-07T12:00:03.323Z,31.86
2019-06-07T12:02:37.660Z,31.89
2019-06-07T12:05:16.188Z,31.79
2019-06-07T12:07:49.843Z,31.20
2019-06-07T12:10:25.268Z,30.85
2019-06-07T12:12:59.655Z,31.36
2019-06-07T12:15:33.398Z,31.73
2019-06-07T12:18:07.048Z,32.39
2019-06-07T12:20:40.225Z,32.68
2019-06-07T12:23:16.041Z,32.97
2019-06-07T12:25:52.252Z,33.78
2019-06-07T12:28:25.441Z,33.10
2019-06-07T12:30:59.001Z,32.33
2019-06-07T12:33:33.063Z,32.62
2019-06-07T12:36:06.084Z,32.67
2019-06-07T12:38:38.997Z,31.92
2019-06-07T12:41:14.053Z,32.92
2019-06-07T12:43:50.206Z,32.46
2019-06-07T12:46:28.406Z,31.90
2019-06-07T12:49:00.300Z,32.34
2019-06-07T12:51:36.033Z,32.47
2019-06-07T12:54:09.775Z,32.83
2019-06-07T12:56:43.099Z,32.16
2019-06-07T12:59:16.519Z,32.13
2019-06-07T13:01:49.563Z,32.63
2019-06-07T13:04:24.872Z,31.04
2019-06-07T13:06:59.434Z,30.95
2019-06-07T13:09:36.157Z,30.26
2019-06-07T13:12:09.620Z,29.39
2019-06-07T13:14:42.822Z,29.66
2019-06-07T13:17:18.386Z,30.54
2019-06-07T13:19:52.195Z,30.85
2019-06-07T13:22:25.237Z,31.13
2019-06-07T13:24:59.595Z,31.03
2019-06-07T13:27:33.792Z,32.31
2019-06-07T13:30:10.282Z,32.84
2019-06-07T13:32:43.304Z,32.78
2019-06-07T13:35:18.287Z,33.10
2019-06-07T13:37:51.967Z,33.05
2019-06-07T13:40:25.687Z,32.64
2019-06-07T13:42:59.304Z,32.92
2019-06-07T13:45:33.311Z,32.04
2019-06-07T13:48:06.376Z,31.92
2019-06-07T13:50:39.637Z,32.59
2019-06-07T13:53:13.018Z,30.67
2019-06-07T13:55:47.094Z,31.26
2019-06-07T13:58:22.625Z,31.62
2019-06-07T14:00:56.715Z,31.05
2019-06-07T14:03:33.550Z,30.73
2019-06-07T14:06:05.433Z,30.94
2019-06-07T14:08:40.192Z,31.70
2019-06-07T14:11:15.724Z,30.92
2019-06-07T14:13:55.836Z,30.68
2019-06-07T14:16:30.331Z,30.22
2019-06-07T14:19:03.685Z,30.35
2019-06-07T14:21:37.163Z,29.80
2019-06-07T14:24:10.169Z,30.75
2019-06-07T14:26:44.889Z,31.19
2019-06-07T14:29:17.796Z,30.50
2019-06-07T14:31:51.120Z,31.15
2019-06-07T14:34:24.319Z,31.30
2019-06-07T14:36:57.306Z,32.05
2019-06-07T14:39:31.408Z,31.90
2019-06-07T14:42:09.970Z,32.59
2019-06-07T14:44:43.901Z,34.22
2019-06-07T14:47:16.821Z,35.16
2019-06-07T14:49:49.926Z,35.26
2019-06-07T14:52:24.475Z,35.90
2019-06-07T14:54:58.455Z,36.61
2019-06-07T14:57:31.385Z,37.13
2019-06-07T15:00:11.427Z,37.55
2019-06-07T15:02:45.203Z,37.75
2019-06-07T15:05:24.616Z,38.04
2019-06-07T15:07:57.870Z,38.16
2019-06-07T15:10:33.416Z,38.22
2019-06-07T15:13:09.473Z,38.50
2019-06-07T15:15:42.220Z,38.69
2019-06-07T15:18:15.256Z,38.78
2019-06-07T15:20:48.385Z,39.04
2019-06-07T15:23:22.816Z,39.33
2019-06-07T15:25:56.112Z,39.93
2019-06-07T15:28:30.176Z,40.28
2019-06-07T15:31:03.836Z,40.36
2019-06-07T15:33:38.386Z,40.36
2019-06-07T15:36:11.398Z,40.43
2019-06-07T15:38:44.305Z,40.88
2019-06-07T15:41:17.414Z,41.21
2019-06-07T15:43:50.749Z,41.55
2019-06-07T15:46:24.057Z,42.03
2019-06-07T15:48:58.416Z,42.28
2019-06-07T15:51:32.435Z,43.89
2019-06-07T15:54:05.852Z,45.53
2019-06-07T15:56:39.309Z,46.22
2019-06-07T15:59:12.300Z,45.71
2019-06-07T16:01:45.602Z,44.76
2019-06-07T16:04:19.711Z,47.61
2019-06-07T16:06:53.280Z,48.99
2019-06-07T16:09:27.061Z,49.23
2019-06-07T16:12:01.574Z,50.33
2019-06-07T16:14:35.085Z,50.92
2019-06-07T16:17:08.069Z,51.10
2019-06-07T16:19:43.570Z,50.99
2019-06-07T16:22:16.371Z,50.83
2019-06-07T16:24:50.695Z,51.27
2019-06-07T16:27:24.315Z,51.32
2019-06-07T16:29:57.787Z,50.97
2019-06-07T16:32:31.223Z,50.49
2019-06-07T16:35:07.371Z,49.79
2019-06-07T16:37:42.526Z,48.48
2019-06-07T16:40:15.845Z,47.36
2019-06-07T17:08:09.914Z,49.25
2019-06-07T17:10:44.260Z,49.62
2019-06-07T17:13:32.481Z,49.76
2019-06-07T17:15:51.361Z,49.81
2019-06-07T17:18:24.220Z,50.09
2019-06-07T17:21:00.508Z,50.12
2019-06-07T17:23:33.662Z,50.28
2019-06-07T17:26:07.692Z,50.38
2019-06-07T17:28:42.112Z,50.60
2019-06-07T17:31:16.079Z,50.80
2019-06-07T17:33:50.320Z,51.29
2019-06-07T17:36:23.520Z,51.29
2019-06-07T17:39:00.694Z,52.09
2019-06-07T17:41:50.528Z,52.45
2019-06-07T17:44:09.133Z,52.85
2019-06-07T17:46:43.561Z,53.00
2019-06-07T17:49:17.905Z,52.96
2019-06-07T17:51:52.274Z,52.88
2019-06-07T17:54:27.074Z,52.82
2019-06-07T17:57:00.837Z,53.02
2019-06-07T17:59:34.362Z,53.36
2019-06-07T18:02:15.222Z,53.77
2019-06-07T18:04:45.565Z,54.16
2019-06-07T18:07:19.098Z,54.47
2019-06-07T18:09:53.669Z,54.80
2019-06-07T18:12:34.519Z,55.36
2019-06-07T18:15:10.677Z,55.46
2019-06-07T18:17:44.555Z,55.18
2019-06-07T18:20:18.126Z,54.95
2019-06-07T18:22:51.331Z,54.98
2019-06-07T18:25:24.760Z,55.03
2019-06-07T18:27:58.985Z,55.30
2019-06-07T18:30:33.045Z,55.59
2019-06-07T18:33:07.780Z,55.92
2019-06-07T18:35:41.825Z,56.01
2019-06-07T18:38:15.641Z,56.01
2019-06-07T18:41:10.124Z,56.01
2019-06-07T18:43:44.505Z,56.42
2019-06-07T18:46:17.957Z,56.89
2019-06-07T18:48:52.499Z,57.09
2019-06-07T18:51:26.695Z,57.55
2019-06-07T18:54:01.728Z,57.80
2019-06-07T18:56:36.014Z,57.76
2019-06-07T18:59:10.861Z,57.15
2019-06-07T19:01:45.282Z,56.99
2019-06-07T19:04:19.544Z,57.49
2019-06-07T19:06:54.341Z,57.69
2019-06-07T19:09:37.261Z,57.98
2019-06-07T19:12:16.889Z,58.15
2019-06-07T19:14:53.299Z,58.06
2019-06-07T19:17:27.744Z,57.77
2019-06-07T19:22:50.106Z,57.58
2019-06-07T19:25:25.190Z,58.11
2019-06-07T19:27:59.134Z,58.89
2019-06-07T19:30:32.796Z,60.12
2019-06-07T19:33:06.752Z,59.85
2019-06-07T19:35:41.309Z,59.76
2019-06-07T19:38:16.944Z,59.53
2019-06-07T19:40:51.691Z,59.84
2019-06-07T19:43:24.632Z,60.33
2019-06-07T19:46:02.401Z,60.58
2019-06-07T19:48:36.954Z,59.96
2019-06-07T19:51:10.668Z,60.53
2019-06-07T19:53:45.706Z,60.97
2019-06-07T19:56:19.928Z,61.27
2019-06-07T19:58:53.614Z,61.46
2019-06-07T20:01:28.490Z,61.60
2019-06-07T20:04:02.472Z,61.84
2019-06-07T20:06:36.004Z,62.05
2019-06-07T20:09:10.050Z,62.05
2019-06-07T20:11:44.159Z,61.93
2019-06-07T20:14:19.029Z,61.71
2019-06-07T20:16:52.228Z,61.66
2019-06-07T20:19:26.264Z,61.88
2019-06-07T20:22:00.924Z,61.85
2019-06-07T20:24:38.054Z,61.91
2019-06-07T20:27:11.059Z,61.74
2019-06-07T20:29:44.368Z,61.50
2019-06-07T20:32:17.939Z,61.46
2019-06-07T20:34:52.182Z,61.41
2019-06-07T20:37:25.511Z,61.57
2019-06-07T20:40:07.980Z,61.69
2019-06-07T20:42:34.653Z,61.86
2019-06-07T20:45:09.127Z,61.84
2019-06-07T20:47:42.414Z,61.73
2019-06-07T20:50:15.706Z,61.46
2019-06-07T20:52:48.739Z,61.30
2019-06-07T20:55:22.078Z,61.49
2019-06-07T20:57:55.343Z,61.73
2019-06-07T21:00:29.074Z,61.91
2019-06-07T21:03:03.337Z,61.82
2019-06-07T21:05:37.148Z,61.72
2019-06-07T21:08:12.957Z,61.60
2019-06-07T21:10:45.656Z,61.63
2019-06-07T21:13:19.247Z,61.69
2019-06-07T21:16:04.626Z,61.91
2019-06-07T21:18:41.346Z,62.02
2019-06-07T21:21:14.981Z,62.07
2019-06-07T21:23:49.118Z,62.10
2019-06-07T21:26:22.386Z,62.24
2019-06-07T21:28:55.723Z,62.39
2019-06-07T21:31:29.014Z,62.44
2019-06-07T21:34:03.720Z,62.51
2019-06-07T21:36:41.358Z,62.58
2019-06-07T21:39:14.564Z,62.67
2019-06-07T21:41:47.661Z,62.84
2019-06-07T21:44:21.783Z,63.06
2019-06-07T21:46:55.009Z,63.38
2019-06-07T21:49:28.077Z,63.62
2019-06-07T21:52:02.473Z,63.73
2019-06-07T21:54:37.745Z,63.86
2019-06-07T21:57:13.202Z,63.87
2019-06-07T21:59:46.440Z,63.91
2019-06-07T22:02:20.021Z,64.28
2019-06-07T22:04:53.558Z,64.65
2019-06-07T22:07:27.109Z,64.83
2019-06-07T22:10:00.322Z,64.91
2019-06-07T22:12:33.849Z,65.04
2019-06-07T22:15:24.775Z,64.93
2019-06-07T22:17:44.412Z,65.19
2019-06-07T22:20:18.021Z,65.31
2019-06-07T22:22:51.326Z,65.35
2019-06-07T22:25:46.005Z,65.28
2019-06-07T22:28:19.150Z,65.25
2019-06-07T22:30:53.948Z,65.31
2019-06-07T22:33:29.742Z,65.39
2019-06-07T22:36:02.960Z,65.29
2019-06-07T22:38:37.376Z,65.00
2019-06-07T22:41:12.312Z,64.86
2019-06-07T22:43:45.655Z,64.75
2019-06-07T22:46:19.608Z,64.54
2019-06-07T22:48:52.812Z,64.38
2019-06-07T22:51:25.844Z,64.24
2019-06-07T22:53:59.364Z,63.98
2019-06-07T22:56:41.142Z,63.69
2019-06-07T22:59:18.546Z,63.53
2019-06-07T23:01:50.413Z,63.61
2019-06-07T23:04:23.804Z,63.79
2019-06-07T23:06:57.364Z,63.83
2019-06-07T23:09:30.575Z,63.84
2019-06-07T23:12:04.031Z,63.80
2019-06-07T23:14:37.267Z,63.85
2019-06-07T23:17:11.496Z,64.25
2019-06-07T23:19:46.125Z,64.48
2019-06-07T23:22:20.175Z,64.62
2019-06-07T23:24:53.313Z,64.62
2019-06-07T23:27:27.994Z,64.64
2019-06-07T23:30:08.621Z,64.67
2019-06-07T23:32:40.578Z,64.65
2019-06-07T23:35:14.715Z,64.69
2019-06-07T23:37:48.189Z,64.73
2019-06-07T23:40:22.176Z,64.65
2019-06-07T23:42:55.131Z,64.40
2019-06-07T23:45:28.252Z,64.22
2019-06-07T23:48:02.247Z,64.25
2019-06-07T23:50:35.358Z,64.35
2019-06-07T23:53:08.369Z,64.56
2019-06-07T23:55:41.565Z,64.42
2019-06-07T23:58:15.987Z,64.30
